KSMO/SMO METAR and TAF weather

Enter ICAO airport designator
Station Type Date Time Source
KSMO METAR 2020/02/20 15:51 UTC NOAA

KSMO 201551Z 00000KT 6SM HZ CLR 13/09 A3010 RMK AO2 SLP193 T01280094


Station Type Date Time Source
KSMO Decoded METAR 2020/02/20 15:51 UTC NOAA

SANTA MONICA MUNICIPAL AIRPORT , CA, United States (KSMO) 34-01N 118-27W 57M
Feb 20, 2020 - 10:51 AM EST / 2020.02.20 1551 UTC
Wind: Calm:0
Visibility: 6 mile(s):0
Sky conditions: clear
Weather: haze
Temperature: 55.0 F (12.8 C)
Dew Point: 48.9 F (9.4 C)
Relative Humidity: 79%
Pressure (altimeter): 30.1 in. Hg (1019 hPa)
ob: KSMO 201551Z 00000KT 6SM HZ CLR 13/09 A3010 RMK AO2 SLP193 T01280094
cycle: 16

Station Type Date Time Source
KSMO TAF 2020/02/20 12:48 UTC NOAA

TAF KSMO 201148Z 2012/2112 VRB03KT P6SM SKC
FM202000 24008KT P6SM SKC
FM210300 VRB03KT P6SM SKC

Example: see airport list